Time;durP1;ratioP1;P1;durP2;ratioP2;P2;SDS_P1;SDS_P2;PMS_P1;PMS_P2;Temp;Humidity;BMP_temperature;BMP_pressure;BME280_temperature;BME280_humidity;BME280_pressure;Samples;Min_cycle;Max_cycle;Signal;HPM_P1;HPM_P2
2021/03/16 00:02:10;;;;;;;12.17;2.20;;;2.60;85.70;;;;;;5036371;28;20040;-64
2021/03/16 00:04:44;;;;;;;10.53;2.17;;;2.50;85.70;;;;;;5040593;28;20029;-63
2021/03/16 00:07:27;;;;;;;9.40;2.03;;;2.50;85.70;;;;;;5028554;28;20049;-64
2021/03/16 00:09:53;;;;;;;10.00;2.17;;;2.40;85.80;;;;;;5041761;28;20036;-64
2021/03/16 00:12:18;;;;;;;9.63;1.97;;;2.40;85.80;;;;;;5040925;28;20032;-63
2021/03/16 00:14:45;;;;;;;8.93;2.10;;;2.40;86.10;;;;;;5041518;28;20041;-64
2021/03/16 00:17:11;;;;;;;9.27;1.80;;;2.40;86.00;;;;;;5040548;28;20647;-63
2021/03/16 00:19:37;;;;;;;7.60;2.03;;;2.40;86.10;;;;;;5040144;28;20725;-64
2021/03/16 00:22:03;;;;;;;10.37;2.20;;;2.30;86.10;;;;;;5037402;28;20037;-63
2021/03/16 00:24:29;;;;;;;8.00;2.00;;;2.30;86.10;;;;;;5038692;28;20045;-63
2021/03/16 00:26:55;;;;;;;10.03;2.07;;;2.20;86.30;;;;;;5043863;28;20037;-64
2021/03/16 00:29:21;;;;;;;8.43;2.20;;;2.30;86.40;;;;;;5041589;28;20041;-64
2021/03/16 00:31:46;;;;;;;9.30;1.90;;;2.20;86.40;;;;;;5041750;28;20037;-63
2021/03/16 00:34:12;;;;;;;8.87;2.30;;;2.20;86.50;;;;;;5039782;28;20044;-63
2021/03/16 00:36:38;;;;;;;8.40;2.10;;;2.20;86.30;;;;;;5013298;28;20124;-64
2021/03/16 00:39:05;;;;;;;10.83;2.00;;;2.10;86.30;;;;;;5029340;28;20038;-64
2021/03/16 00:41:31;;;;;;;9.00;1.90;;;2.10;86.40;;;;;;5012657;28;20038;-64
2021/03/16 00:43:56;;;;;;;6.40;2.00;;;2.10;86.40;;;;;;5027865;28;20100;-64
2021/03/16 00:46:22;;;;;;;7.73;2.10;;;2.10;86.60;;;;;;5012116;28;20104;-64
2021/03/16 00:48:48;;;;;;;8.27;2.30;;;2.10;86.60;;;;;;5028499;28;20125;-63
2021/03/16 00:51:14;;;;;;;11.00;2.00;;;2.00;86.60;;;;;;5011385;28;20080;-62
2021/03/16 00:53:40;;;;;;;7.70;2.10;;;2.00;86.70;;;;;;5012978;28;20038;-61
2021/03/16 00:56:09;;;;;;;6.30;2.00;;;2.00;86.90;;;;;;5012681;28;20034;-62
2021/03/16 00:58:35;;;;;;;5.93;2.03;;;1.90;86.80;;;;;;5012882;28;20379;-61
2021/03/16 01:01:01;;;;;;;5.67;2.23;;;1.90;86.90;;;;;;5011599;28;20124;-61
2021/03/16 01:03:26;;;;;;;7.30;2.00;;;1.90;87.00;;;;;;5011193;28;20120;-61
2021/03/16 01:05:53;;;;;;;5.03;1.80;;;1.90;87.00;;;;;;5013015;28;20030;-62
2021/03/16 01:08:20;;;;;;;9.43;1.70;;;1.90;87.20;;;;;;5011985;28;20026;-62
2021/03/16 01:10:48;;;;;;;9.10;2.20;;;1.90;87.20;;;;;;5010675;28;20089;-61
2021/03/16 01:13:14;;;;;;;8.03;1.90;;;1.90;87.00;;;;;;5012702;28;20030;-62
2021/03/16 01:15:40;;;;;;;7.90;1.97;;;1.90;87.00;;;;;;5012390;28;20497;-62
2021/03/16 01:18:06;;;;;;;7.37;1.80;;;1.90;86.80;;;;;;5028134;28;20037;-61
2021/03/16 01:20:32;;;;;;;8.53;1.90;;;1.80;86.90;;;;;;5012251;28;20117;-63
2021/03/16 01:22:58;;;;;;;9.87;1.80;;;1.80;87.10;;;;;;5011055;28;20113;-61
2021/03/16 01:25:24;;;;;;;7.27;1.70;;;1.70;87.10;;;;;;5012599;28;20442;-61
2021/03/16 01:27:50;;;;;;;5.93;1.90;;;1.70;87.10;;;;;;5027356;28;20044;-61
2021/03/16 01:30:16;;;;;;;6.33;1.67;;;1.70;87.20;;;;;;5011063;28;20034;-61
2021/03/16 01:32:42;;;;;;;6.07;1.57;;;1.70;87.20;;;;;;4994878;28;20059;-61
2021/03/16 01:35:09;;;;;;;6.07;1.63;;;1.70;87.20;;;;;;5012166;28;20656;-62
2021/03/16 01:37:41;;;;;;;4.63;1.60;;;1.60;87.00;;;;;;5012444;28;20053;-62
2021/03/16 01:40:18;;;;;;;6.83;1.70;;;1.60;87.10;;;;;;4994823;28;20522;-61
2021/03/16 01:42:44;;;;;;;9.40;1.97;;;1.60;87.20;;;;;;5011950;28;20042;-64
2021/03/16 01:45:12;;;;;;;7.13;1.67;;;1.50;86.90;;;;;;5011821;28;20038;-64
2021/03/16 01:47:45;;;;;;;7.87;1.77;;;1.50;86.90;;;;;;5012412;28;20044;-64
2021/03/16 01:50:13;;;;;;;7.20;1.70;;;1.50;87.10;;;;;;5011736;28;20046;-72
2021/03/16 01:52:39;;;;;;;7.67;1.70;;;1.40;87.10;;;;;;5011976;28;20384;-72
2021/03/16 01:55:06;;;;;;;8.63;1.90;;;1.40;87.20;;;;;;5010934;28;20097;-72
2021/03/16 01:57:32;;;;;;;5.60;1.80;;;1.40;87.10;;;;;;5011758;28;20053;-64
2021/03/16 02:00:17;;;;;;;7.17;1.80;;;1.30;87.00;;;;;;5011594;28;20084;-64
2021/03/16 02:03:01;;;;;;;5.50;1.47;;;1.30;87.20;;;;;;5011837;28;20036;-63
2021/03/16 02:05:45;;;;;;;8.40;1.70;;;1.30;87.30;;;;;;5011747;28;21594;-63
2021/03/16 02:08:56;;;;;;;10.53;2.00;;;1.20;87.40;;;;;;5011628;28;20045;-64
2021/03/16 02:11:52;;;;;;;7.93;1.90;;;1.20;87.40;;;;;;5011274;28;20516;-64
2021/03/16 02:14:50;;;;;;;5.20;1.97;;;1.10;87.40;;;;;;5011744;28;20072;-64
2021/03/16 02:17:35;;;;;;;6.70;2.27;;;1.10;87.80;;;;;;5012205;28;20517;-64
2021/03/16 02:21:01;;;;;;;8.53;1.73;;;1.10;87.90;;;;;;5011979;28;20586;-61
2021/03/16 02:24:02;;;;;;;7.40;1.90;;;1.20;88.10;;;;;;5011872;28;20169;-61
2021/03/16 02:26:48;;;;;;;;;;;1.20;87.90;;;;;;5013505;28;20501;-60
2021/03/16 02:29:44;;;;;;;6.13;1.90;;;1.20;88.00;;;;;;5013547;28;20004;-64
2021/03/16 02:32:30;;;;;;;8.43;2.10;;;1.10;87.90;;;;;;5012715;28;20052;-64
2021/03/16 02:35:18;;;;;;;10.80;2.13;;;1.10;87.80;;;;;;5013151;28;20121;-61
2021/03/16 02:38:05;;;;;;;10.33;2.00;;;1.10;88.10;;;;;;5012401;28;20045;-62
2021/03/16 02:40:52;;;;;;;10.67;2.90;;;1.10;88.20;;;;;;5012672;28;20052;-63
2021/03/16 02:43:36;;;;;;;10.50;2.20;;;1.10;88.20;;;;;;5013154;28;20564;-62
2021/03/16 02:46:21;;;;;;;10.60;2.10;;;1.10;88.50;;;;;;5013016;28;20049;-61
2021/03/16 02:49:06;;;;;;;7.50;2.03;;;1.00;88.40;;;;;;5013887;28;20044;-62
2021/03/16 02:51:52;;;;;;;9.73;2.47;;;1.00;88.40;;;;;;5013059;28;20609;-62
2021/03/16 02:54:37;;;;;;;7.70;1.93;;;1.00;88.50;;;;;;5013179;28;20517;-62
2021/03/16 02:57:24;;;;;;;7.07;2.07;;;1.00;88.60;;;;;;5011817;28;20053;-62
2021/03/16 03:00:09;;;;;;;8.47;2.10;;;1.00;88.70;;;;;;5012596;28;20060;-61
2021/03/16 03:02:53;;;;;;;8.53;2.20;;;1.00;88.80;;;;;;5010913;28;20053;-62
2021/03/16 03:05:39;;;;;;;8.57;2.07;;;1.00;88.80;;;;;;5011272;28;20374;-61
2021/03/16 03:08:24;;;;;;;9.10;2.53;;;1.00;88.90;;;;;;5010086;28;20080;-62
2021/03/16 03:11:10;;;;;;;8.50;2.30;;;1.00;88.90;;;;;;5011137;28;20056;-62
2021/03/16 03:13:54;;;;;;;9.83;2.47;;;1.00;88.90;;;;;;5010823;28;20056;-62
2021/03/16 03:16:39;;;;;;;11.43;2.40;;;0.90;89.00;;;;;;5011377;28;20048;-60
2021/03/16 03:19:24;;;;;;;12.03;2.60;;;0.90;89.00;;;;;;5013444;28;20064;-61
2021/03/16 03:22:34;;;;;;;7.40;2.30;;;1.00;89.40;;;;;;5012473;28;20041;-61
2021/03/16 03:25:25;;;;;;;9.03;3.30;;;0.90;89.30;;;;;;5012934;28;20106;-72
2021/03/16 03:28:16;;;;;;;11.83;3.10;;;1.00;89.70;;;;;;5012699;28;20521;-61
2021/03/16 03:31:02;;;;;;;10.95;3.17;;;0.90;89.70;;;;;;5013519;28;20053;-61
2021/03/16 03:33:47;;;;;;;14.53;3.40;;;1.00;89.80;;;;;;5013192;28;20073;-62
2021/03/16 03:36:34;;;;;;;14.23;3.53;;;1.00;89.90;;;;;;5013372;28;20095;-61
2021/03/16 03:39:21;;;;;;;13.30;3.40;;;1.00;90.00;;;;;;5013230;28;20084;-61
2021/03/16 03:42:07;;;;;;;13.60;3.83;;;1.00;90.00;;;;;;5012633;28;20116;-62
2021/03/16 03:44:53;;;;;;;13.80;4.50;;;1.00;90.00;;;;;;5013351;28;20111;-61
2021/03/16 03:47:40;;;;;;;14.63;4.10;;;1.00;90.10;;;;;;5015508;28;20065;-62
2021/03/16 03:50:25;;;;;;;13.00;4.30;;;1.00;90.00;;;;;;5013164;28;20179;-61
2021/03/16 03:53:11;;;;;;;15.97;4.17;;;1.00;90.10;;;;;;5014444;28;20160;-62
2021/03/16 03:55:55;;;;;;;15.63;4.20;;;1.00;90.20;;;;;;5014119;28;20072;-62
2021/03/16 03:58:40;;;;;;;21.00;4.93;;;1.00;90.30;;;;;;5012994;28;20045;-61
2021/03/16 04:01:26;;;;;;;19.43;5.17;;;1.00;90.40;;;;;;5013978;28;20066;-62
2021/03/16 04:04:10;;;;;;;23.97;4.97;;;1.10;90.60;;;;;;5013930;28;20113;-62
2021/03/16 04:06:57;;;;;;;19.37;4.60;;;1.10;90.60;;;;;;5014019;28;20052;-62
2021/03/16 04:09:41;;;;;;;19.60;4.87;;;1.10;90.50;;;;;;5013100;28;20045;-61
2021/03/16 04:12:25;;;;;;;23.17;4.93;;;1.10;90.50;;;;;;5014631;28;20045;-61
2021/03/16 04:15:12;;;;;;;26.13;5.23;;;1.10;90.60;;;;;;5014627;28;20057;-62
2021/03/16 04:17:56;;;;;;;22.47;5.80;;;1.20;90.70;;;;;;5013426;28;20053;-62
2021/03/16 04:20:43;;;;;;;23.23;5.23;;;1.10;90.60;;;;;;5012703;28;20114;-61
2021/03/16 04:23:28;;;;;;;22.37;5.27;;;1.10;90.70;;;;;;5013828;28;20134;-62
2021/03/16 04:26:12;;;;;;;19.63;5.13;;;1.20;90.70;;;;;;5013073;28;20064;-62
2021/03/16 04:28:56;;;;;;;21.97;6.03;;;1.10;90.70;;;;;;5013419;28;20751;-61
2021/03/16 04:31:40;;;;;;;32.63;6.47;;;1.10;90.90;;;;;;5012983;28;20104;-62
2021/03/16 04:34:25;;;;;;;31.00;7.73;;;1.20;91.00;;;;;;5012150;28;20040;-61
2021/03/16 04:37:09;;;;;;;25.03;7.90;;;1.20;91.20;;;;;;5012858;28;20582;-62
2021/03/16 04:39:53;;;;;;;31.07;8.63;;;1.30;91.70;;;;;;5013154;28;20045;-62
2021/03/16 04:42:37;;;;;;;24.50;7.80;;;1.50;92.10;;;;;;5012546;28;20405;-62
2021/03/16 04:45:22;;;;;;;27.87;8.20;;;1.60;92.00;;;;;;5013317;28;20049;-61
2021/03/16 04:48:06;;;;;;;26.67;8.03;;;1.80;92.00;;;;;;5011881;28;20172;-62
2021/03/16 04:50:50;;;;;;;32.50;9.07;;;2.00;92.10;;;;;;5012024;28;20508;-62
2021/03/16 04:53:34;;;;;;;30.00;7.63;;;2.20;92.20;;;;;;5012048;28;20049;-61
2021/03/16 04:56:18;;;;;;;28.03;7.33;;;2.20;92.00;;;;;;5011649;28;20129;-62
2021/03/16 04:59:03;;;;;;;26.63;7.60;;;2.30;92.00;;;;;;4997214;28;20049;-62
2021/03/16 05:01:48;;;;;;;31.40;8.87;;;2.40;92.00;;;;;;5011106;28;20129;-61
2021/03/16 05:04:32;;;;;;;33.00;9.23;;;2.50;92.20;;;;;;5012268;28;20087;-61
2021/03/16 05:07:16;;;;;;;24.70;7.80;;;2.60;92.00;;;;;;5011459;28;20157;-62
2021/03/16 05:10:01;;;;;;;36.87;9.43;;;2.60;92.00;;;;;;5012451;28;20540;-61
2021/03/16 05:12:45;;;;;;;30.17;9.63;;;2.70;92.00;;;;;;5012201;28;20064;-61
2021/03/16 05:15:29;;;;;;;40.23;10.43;;;2.70;92.00;;;;;;5012497;28;20080;-62
2021/03/16 05:18:13;;;;;;;43.53;11.00;;;2.80;92.10;;;;;;5012559;28;20149;-62
2021/03/16 05:20:57;;;;;;;35.20;10.53;;;2.80;92.00;;;;;;5011234;28;20455;-62
2021/03/16 05:23:42;;;;;;;35.70;11.33;;;2.80;92.10;;;;;;5011417;28;20053;-62
2021/03/16 05:26:26;;;;;;;44.63;12.80;;;2.90;92.10;;;;;;5012429;28;20037;-62
2021/03/16 05:29:10;;;;;;;44.30;13.23;;;2.90;92.10;;;;;;5011986;28;20683;-62
2021/03/16 05:31:54;;;;;;;37.43;12.43;;;3.00;92.10;;;;;;5011712;28;20068;-72
2021/03/16 05:34:38;;;;;;;40.00;13.20;;;3.00;92.10;;;;;;5011893;28;20068;-73
2021/03/16 05:37:23;;;;;;;40.13;13.77;;;3.00;92.20;;;;;;5011117;28;20079;-73
2021/03/16 05:40:07;;;;;;;40.50;14.50;;;3.10;92.20;;;;;;5010715;28;20084;-73
2021/03/16 05:42:52;;;;;;;39.67;13.20;;;3.10;92.30;;;;;;5011302;28;20045;-73
2021/03/16 05:45:38;;;;;;;45.40;13.90;;;3.20;92.30;;;;;;5010534;28;20053;-73
2021/03/16 05:48:24;;;;;;;35.87;12.67;;;3.30;92.40;;;;;;5008360;28;20037;-73
2021/03/16 05:51:09;;;;;;;39.40;12.90;;;3.30;92.30;;;;;;5010977;28;20161;-72
2021/03/16 05:53:53;;;;;;;42.37;13.40;;;3.40;92.40;;;;;;5011551;28;20124;-73
2021/03/16 05:56:39;;;;;;;40.17;13.37;;;3.40;92.30;;;;;;5011398;28;20092;-72
2021/03/16 05:59:24;;;;;;;45.10;13.43;;;3.50;92.40;;;;;;5011017;28;20071;-72
2021/03/16 06:02:09;;;;;;;44.27;14.10;;;3.50;92.40;;;;;;5011264;28;20044;-76
2021/03/16 06:04:52;;;;;;;42.53;13.10;;;3.60;92.40;;;;;;5011884;28;20532;-73
2021/03/16 06:07:37;;;;;;;39.43;16.07;;;3.60;92.40;;;;;;5012188;28;20128;-73
2021/03/16 06:10:22;;;;;;;50.67;18.73;;;3.70;92.40;;;;;;5010813;28;20454;-73
2021/03/16 06:13:15;;;;;;;42.13;14.53;;;3.80;92.40;;;;;;5011515;28;20072;-72
2021/03/16 06:16:11;;;;;;;43.70;15.63;;;3.80;92.40;;;;;;5012069;28;20573;-73
2021/03/16 06:18:55;;;;;;;41.60;14.60;;;3.90;92.40;;;;;;5011402;28;20605;-73
2021/03/16 06:21:39;;;;;;;34.07;14.20;;;3.90;92.40;;;;;;5010119;28;20060;-68
2021/03/16 06:24:23;;;;;;;35.90;13.20;;;4.00;92.40;;;;;;5011127;28;20037;-73
2021/03/16 06:27:08;;;;;;;30.63;11.43;;;4.10;92.40;;;;;;5010292;28;20169;-73
2021/03/16 06:29:53;;;;;;;34.27;11.83;;;4.10;92.40;;;;;;5011427;28;20041;-73
2021/03/16 06:32:38;;;;;;;35.63;10.27;;;4.20;92.40;;;;;;5010721;28;20040;-72
2021/03/16 06:35:26;;;;;;;31.27;8.80;;;4.30;92.40;;;;;;5011088;28;20044;-73
2021/03/16 06:38:11;;;;;;;27.83;9.23;;;4.30;92.30;;;;;;5011389;28;20037;-73
2021/03/16 06:41:07;;;;;;;19.10;6.60;;;4.40;92.20;;;;;;5010732;28;20044;-72
2021/03/16 06:44:04;;;;;;;22.57;5.40;;;4.40;92.20;;;;;;5011053;28;20542;-72
2021/03/16 06:46:56;;;;;;;23.77;5.80;;;4.50;92.10;;;;;;5011091;28;20037;-72
2021/03/16 06:49:41;;;;;;;20.40;5.73;;;4.50;92.20;;;;;;5011534;28;20517;-73
2021/03/16 06:52:26;;;;;;;18.47;5.70;;;4.60;92.20;;;;;;5010115;28;20117;-72
2021/03/16 06:55:12;;;;;;;19.97;5.90;;;4.70;92.20;;;;;;5010018;28;20453;-72
2021/03/16 06:58:09;;;;;;;19.27;4.73;;;4.80;92.20;;;;;;5010285;28;20041;-73
2021/03/16 07:01:13;;;;;;;20.67;4.03;;;4.90;92.00;;;;;;5011218;28;20045;-72
2021/03/16 07:03:59;;;;;;;17.83;3.80;;;4.90;91.90;;;;;;5011146;28;20558;-73
2021/03/16 07:06:44;;;;;;;19.50;4.27;;;5.00;91.80;;;;;;5010617;28;20053;-72
2021/03/16 07:09:31;;;;;;;20.07;4.27;;;5.00;91.80;;;;;;5010139;28;20057;-73
2021/03/16 07:12:17;;;;;;;17.60;4.13;;;5.10;91.80;;;;;;5009614;28;20112;-73
2021/03/16 07:15:04;;;;;;;18.20;3.70;;;5.10;91.80;;;;;;5009363;28;20037;-72
2021/03/16 07:17:49;;;;;;;19.03;4.40;;;5.20;91.70;;;;;;5009691;28;20065;-73
2021/03/16 07:20:36;;;;;;;19.47;4.97;;;5.30;91.50;;;;;;5010003;28;20068;-72
2021/03/16 07:23:23;;;;;;;17.17;5.00;;;5.40;91.40;;;;;;5025657;28;20084;-73
2021/03/16 07:26:08;;;;;;;20.60;5.53;;;5.40;91.30;;;;;;5013735;28;20114;-64
2021/03/16 07:28:52;;;;;;;17.13;4.97;;;5.50;91.30;;;;;;5013153;28;20080;-65
2021/03/16 07:31:39;;;;;;;16.87;4.27;;;5.50;91.20;;;;;;5011874;28;20088;-64
2021/03/16 07:34:25;;;;;;;15.17;4.23;;;5.60;91.10;;;;;;5012779;28;20060;-64
2021/03/16 07:37:10;;;;;;;13.00;4.40;;;5.70;90.90;;;;;;5012739;28;20137;-65
2021/03/16 07:39:59;;;;;;;14.97;4.27;;;5.70;90.80;;;;;;5012767;28;20409;-63
2021/03/16 07:42:43;;;;;;;11.13;4.30;;;5.80;90.80;;;;;;5012749;28;20125;-64
2021/03/16 07:45:30;;;;;;;15.07;4.33;;;5.90;90.80;;;;;;5013071;28;20104;-64
2021/03/16 07:48:20;;;;;;;13.90;4.40;;;6.00;90.60;;;;;;5026409;28;20145;-63
2021/03/16 07:51:21;;;;;;;16.53;4.33;;;6.00;90.20;;;;;;5012950;28;20755;-64
2021/03/16 07:54:07;;;;;;;15.40;4.40;;;6.00;90.00;;;;;;5025855;28;20105;-64
2021/03/16 07:56:59;;;;;;;18.70;4.13;;;6.00;90.10;;;;;;5011771;28;20052;-63
2021/03/16 07:59:44;;;;;;;14.40;3.40;;;6.10;90.00;;;;;;5011572;28;20044;-63
2021/03/16 08:02:30;;;;;;;15.80;4.20;;;6.20;89.60;;;;;;5012376;28;20161;-63
2021/03/16 08:05:18;;;;;;;14.70;4.13;;;6.20;89.60;;;;;;5012342;28;20045;-64
2021/03/16 08:08:16;;;;;;;14.47;3.90;;;6.20;89.30;;;;;;5012758;28;20045;-66
2021/03/16 08:11:12;;;;;;;15.33;4.13;;;6.30;88.80;;;;;;5011849;28;20069;-64
2021/03/16 08:13:59;;;;;;;17.00;4.37;;;6.30;88.80;;;;;;5011775;28;20568;-63
2021/03/16 08:16:44;;;;;;;19.00;4.10;;;6.40;88.60;;;;;;5012968;28;20072;-64
2021/03/16 08:19:37;;;;;;;15.37;3.50;;;6.50;88.10;;;;;;5011525;28;20045;-64
2021/03/16 08:22:24;;;;;;;18.37;3.93;;;6.50;87.60;;;;;;5012478;28;20065;-63
2021/03/16 08:25:10;;;;;;;16.03;3.50;;;6.60;87.40;;;;;;5012817;28;20300;-67
2021/03/16 08:27:54;;;;;;;16.47;3.70;;;6.60;87.20;;;;;;5012475;28;20056;-63
2021/03/16 08:30:40;;;;;;;20.13;3.57;;;6.70;86.80;;;;;;5011558;28;20481;-64
2021/03/16 08:33:27;;;;;;;16.97;2.77;;;6.80;86.70;;;;;;5011263;28;20453;-64
2021/03/16 08:36:11;;;;;;;15.73;3.07;;;6.80;86.20;;;;;;5012036;28;20061;-63
2021/03/16 08:38:56;;;;;;;16.67;3.10;;;6.80;86.20;;;;;;5011782;28;20125;-64
2021/03/16 08:41:50;;;;;;;17.03;3.67;;;6.90;86.10;;;;;;5011114;28;20410;-64
2021/03/16 08:44:35;;;;;;;13.97;3.27;;;7.00;86.50;;;;;;5012265;28;20564;-64
2021/03/16 08:47:23;;;;;;;10.60;2.43;;;7.10;85.80;;;;;;5011787;28;20088;-63
2021/03/16 08:50:08;;;;;;;13.47;2.47;;;7.30;84.90;;;;;;5011414;28;20044;-64
2021/03/16 08:52:53;;;;;;;14.13;3.07;;;7.40;85.60;;;;;;5011477;28;20041;-63
2021/03/16 08:55:37;;;;;;;12.47;2.33;;;7.60;85.10;;;;;;5011811;28;20076;-64
2021/03/16 08:58:23;;;;;;;14.53;2.53;;;8.00;85.00;;;;;;5010589;28;20045;-63
2021/03/16 09:01:07;;;;;;;19.10;4.43;;;8.30;84.40;;;;;;5011240;28;20045;-63
2021/03/16 09:03:52;;;;;;;13.37;2.90;;;8.50;83.70;;;;;;5010538;28;20033;-63
2021/03/16 09:06:37;;;;;;;17.50;2.87;;;8.50;82.80;;;;;;5011092;28;20109;-72
2021/03/16 09:09:26;;;;;;;17.47;3.20;;;8.60;82.10;;;;;;5011440;28;20505;-71
2021/03/16 09:12:13;;;;;;;13.73;2.37;;;8.50;80.50;;;;;;5011588;28;20037;-71
2021/03/16 09:15:10;;;;;;;16.07;2.27;;;8.40;80.40;;;;;;4997534;28;20044;-71
2021/03/16 09:17:58;;;;;;;12.63;2.60;;;8.30;80.40;;;;;;5012431;28;20485;-72
2021/03/16 09:20:43;;;;;;;15.13;2.40;;;8.30;81.00;;;;;;5011400;28;20045;-72
2021/03/16 09:23:27;;;;;;;14.43;2.57;;;8.20;79.80;;;;;;5011425;28;20053;-72
2021/03/16 09:26:12;;;;;;;13.47;2.77;;;8.20;80.30;;;;;;5012899;28;20045;-71
2021/03/16 09:29:00;;;;;;;12.50;2.30;;;8.30;80.50;;;;;;5012434;28;20060;-71
2021/03/16 09:31:45;;;;;;;15.87;2.57;;;8.30;79.50;;;;;;5010767;28;20049;-71
2021/03/16 09:34:30;;;;;;;15.20;2.67;;;8.30;79.70;;;;;;5011459;28;20064;-72
2021/03/16 09:37:15;;;;;;;17.40;2.77;;;8.50;79.90;;;;;;5012050;28;20414;-71
2021/03/16 09:40:01;;;;;;;16.13;2.57;;;8.60;79.00;;;;;;5012082;28;20042;-71
2021/03/16 09:42:47;;;;;;;16.63;2.73;;;8.60;77.70;;;;;;4996509;28;20048;-71
2021/03/16 09:45:20;;;;;;;13.07;2.67;;;8.80;79.40;;;;;;5027005;28;20391;-71
2021/03/16 09:47:47;;;;;;;15.45;2.65;;;9.00;79.20;;;;;;5027747;28;20120;-72
2021/03/16 09:50:30;;;;;;;16.13;3.42;;;9.20;78.70;;;;;;5011690;28;20037;-71
2021/03/16 09:53:05;;;;;;;14.63;2.72;;;9.30;78.10;;;;;;5011579;28;20050;-71
2021/03/16 09:55:32;;;;;;;15.35;2.83;;;10.20;79.30;;;;;;5011883;28;20117;-71
2021/03/16 09:57:59;;;;;;;11.82;2.30;;;11.10;78.50;;;;;;5027108;28;20482;-71
2021/03/16 10:00:26;;;;;;;13.52;2.30;;;11.60;76.60;;;;;;5011776;28;20050;-71
2021/03/16 10:03:07;;;;;;;11.82;2.72;;;11.60;74.40;;;;;;5026985;28;20030;-71
2021/03/16 10:05:34;;;;;;;16.38;2.83;;;11.40;72.20;;;;;;5011717;28;20056;-71
2021/03/16 10:08:01;;;;;;;14.20;2.65;;;11.10;71.90;;;;;;4994416;28;20044;-72
2021/03/16 10:10:31;;;;;;;11.90;2.33;;;10.80;71.40;;;;;;5011877;28;20627;-72
2021/03/16 10:12:58;;;;;;;14.13;3.58;;;10.60;72.00;;;;;;5010324;28;20034;-72
2021/03/16 10:15:35;;;;;;;13.07;2.53;;;10.60;72.70;;;;;;5010656;28;20402;-71
2021/03/16 10:18:05;;;;;;;15.80;3.28;;;10.80;73.10;;;;;;5010111;28;20045;-66
2021/03/16 10:20:36;;;;;;;18.48;4.65;;;10.80;72.20;;;;;;5011578;28;20087;-65
2021/03/16 10:23:10;;;;;;;16.70;3.20;;;10.80;71.40;;;;;;5011171;28;20042;-65
2021/03/16 10:25:37;;;;;;;13.32;2.60;;;10.50;69.60;;;;;;5011676;28;20131;-64
2021/03/16 10:28:05;;;;;;;16.15;2.67;;;10.20;69.30;;;;;;5009902;28;20068;-65
2021/03/16 10:30:45;;;;;;;13.73;2.70;;;9.90;69.90;;;;;;5011485;28;20064;-65
2021/03/16 10:33:12;;;;;;;12.27;2.45;;;10.10;72.00;;;;;;5011191;28;20409;-65
2021/03/16 10:35:41;;;;;;;12.15;2.80;;;11.30;74.20;;;;;;5026776;28;20091;-67
2021/03/16 10:38:07;;;;;;;12.25;2.28;;;13.20;74.60;;;;;;5011259;28;20032;-66
2021/03/16 10:40:35;;;;;;;12.70;2.25;;;14.00;69.10;;;;;;5011399;28;20505;-65
2021/03/16 10:43:01;;;;;;;14.43;2.30;;;13.60;64.80;;;;;;5011156;28;20049;-66
2021/03/16 10:45:27;;;;;;;13.45;2.80;;;12.80;63.40;;;;;;5011136;28;20041;-65
2021/03/16 10:47:54;;;;;;;15.48;2.85;;;12.20;63.80;;;;;;5011421;28;20061;-65
2021/03/16 10:50:21;;;;;;;13.32;2.95;;;11.70;64.20;;;;;;5011358;28;20038;-62
2021/03/16 10:52:47;;;;;;;12.10;2.60;;;11.40;64.90;;;;;;5011417;28;20057;-61
2021/03/16 10:55:13;;;;;;;16.00;2.60;;;11.20;66.20;;;;;;5026540;28;20494;-62
2021/03/16 10:57:39;;;;;;;11.90;1.98;;;11.20;66.20;;;;;;5013716;28;20065;-62
2021/03/16 11:00:07;;;;;;;11.45;2.03;;;11.10;65.90;;;;;;5015373;28;20045;-62
2021/03/16 11:02:33;;;;;;;12.60;2.63;;;11.00;65.10;;;;;;5013052;28;20506;-62
2021/03/16 11:04:59;;;;;;;13.75;1.98;;;10.80;64.60;;;;;;5030155;28;20037;-62
2021/03/16 11:07:25;;;;;;;13.75;2.63;;;10.60;65.00;;;;;;5014805;28;20034;-62
2021/03/16 11:09:51;;;;;;;11.77;2.50;;;10.50;65.50;;;;;;5014194;28;20044;-62
2021/03/16 11:12:17;;;;;;;12.57;3.03;;;10.50;66.10;;;;;;5014488;28;20038;-62
2021/03/16 11:14:44;;;;;;;11.57;3.25;;;10.60;66.50;;;;;;5014165;28;20046;-63
2021/03/16 11:17:11;;;;;;;9.95;2.10;;;10.70;66.50;;;;;;5029624;28;20049;-62
2021/03/16 11:19:37;;;;;;;14.40;2.40;;;10.90;66.40;;;;;;5014456;28;20042;-61
2021/03/16 11:22:03;;;;;;;14.27;3.08;;;10.90;65.70;;;;;;5028910;28;20053;-62
2021/03/16 11:24:29;;;;;;;14.82;2.35;;;10.80;64.30;;;;;;5029228;28;20515;-62
2021/03/16 11:26:54;;;;;;;14.18;2.20;;;10.70;64.40;;;;;;5014551;28;20113;-62
2021/03/16 11:29:20;;;;;;;12.48;2.53;;;10.50;64.10;;;;;;5014024;28;20379;-62
2021/03/16 11:31:46;;;;;;;15.35;3.47;;;10.40;64.90;;;;;;5013824;28;20383;-62
2021/03/16 11:34:31;;;;;;;12.35;2.72;;;10.40;65.10;;;;;;5013852;28;20553;-62
2021/03/16 11:37:15;;;;;;;11.00;2.13;;;10.40;65.60;;;;;;5014146;28;20421;-62
2021/03/16 11:39:59;;;;;;;16.02;2.55;;;10.50;65.60;;;;;;5013735;28;20045;-62
2021/03/16 11:42:44;;;;;;;12.27;2.17;;;10.50;65.40;;;;;;5013545;28;20040;-62
2021/03/16 11:45:28;;;;;;;14.82;2.75;;;10.50;64.70;;;;;;5013809;28;20049;-62
2021/03/16 11:48:12;;;;;;;11.18;2.30;;;10.40;64.60;;;;;;4997211;28;20481;-71
2021/03/16 11:50:57;;;;;;;11.85;2.10;;;10.40;65.00;;;;;;5011377;28;20091;-71
2021/03/16 11:53:41;;;;;;;15.55;2.22;;;10.50;65.40;;;;;;5012487;28;20410;-71
2021/03/16 11:56:26;;;;;;;11.00;2.00;;;10.70;65.70;;;;;;5013185;28;20049;-70
2021/03/16 11:59:10;;;;;;;12.35;1.70;;;10.90;65.40;;;;;;5013412;28;20040;-72
2021/03/16 12:01:54;;;;;;;11.10;2.55;;;11.10;64.90;;;;;;5013747;28;20184;-71
2021/03/16 12:04:39;;;;;;;11.00;2.33;;;11.30;64.80;;;;;;5012786;28;20087;-71
2021/03/16 12:07:23;;;;;;;11.95;2.80;;;11.40;64.40;;;;;;5014096;28;20041;-63
2021/03/16 12:10:09;;;;;;;10.95;2.30;;;11.30;63.40;;;;;;5013667;28;20505;-63
2021/03/16 12:12:53;;;;;;;13.07;2.20;;;11.20;62.80;;;;;;5013521;28;20041;-64
2021/03/16 12:15:38;;;;;;;10.95;2.13;;;11.00;62.20;;;;;;5014028;28;20049;-63
2021/03/16 12:18:22;;;;;;;11.18;2.15;;;10.90;63.00;;;;;;5013876;28;20044;-66
2021/03/16 12:21:07;;;;;;;12.27;2.45;;;10.70;62.40;;;;;;5013668;28;20037;-66
2021/03/16 12:23:51;;;;;;;15.98;2.42;;;10.40;62.20;;;;;;5013476;28;20122;-65
2021/03/16 12:26:35;;;;;;;14.38;2.10;;;10.40;63.50;;;;;;5013304;28;20108;-65
2021/03/16 12:29:20;;;;;;;15.07;2.00;;;10.50;64.20;;;;;;5013830;28;20041;-66
2021/03/16 12:32:06;;;;;;;15.30;2.10;;;10.60;63.50;;;;;;5013300;28;20088;-65
2021/03/16 12:34:51;;;;;;;14.02;2.10;;;10.60;62.40;;;;;;5013350;28;20053;-65
2021/03/16 12:37:36;;;;;;;9.05;1.60;;;10.40;62.10;;;;;;5013502;28;20568;-65
2021/03/16 12:40:20;;;;;;;10.32;1.85;;;10.30;62.60;;;;;;5013138;28;20088;-65
2021/03/16 12:43:05;;;;;;;10.35;2.10;;;10.30;63.30;;;;;;5013462;28;20072;-65
2021/03/16 12:45:50;;;;;;;12.93;1.90;;;10.30;63.40;;;;;;5013318;28;20052;-65
2021/03/16 12:48:34;;;;;;;14.52;2.13;;;10.30;61.90;;;;;;5013132;28;20056;-65
2021/03/16 12:51:18;;;;;;;11.98;1.80;;;10.20;62.70;;;;;;5012159;28;20045;-65
2021/03/16 12:54:03;;;;;;;11.50;1.80;;;10.20;62.90;;;;;;5013097;28;20529;-65
2021/03/16 12:56:49;;;;;;;10.27;1.70;;;10.20;62.80;;;;;;5012780;28;20457;-65
2021/03/16 12:59:33;;;;;;;12.93;1.92;;;10.30;63.00;;;;;;5013324;28;20049;-65
2021/03/16 13:02:17;;;;;;;13.82;2.08;;;10.60;63.40;;;;;;5012747;28;20092;-65
2021/03/16 13:05:02;;;;;;;10.55;1.80;;;10.70;61.90;;;;;;5013255;28;20223;-65
2021/03/16 13:07:47;;;;;;;11.60;1.67;;;10.50;60.60;;;;;;5012676;28;20111;-66
2021/03/16 13:10:31;;;;;;;10.55;1.58;;;10.20;60.70;;;;;;5012435;28;20056;-65
2021/03/16 13:13:16;;;;;;;11.02;1.70;;;10.00;61.00;;;;;;5011993;28;20512;-65
2021/03/16 13:16:01;;;;;;;8.48;2.20;;;9.90;61.70;;;;;;5012568;28;20096;-65
2021/03/16 13:18:45;;;;;;;11.13;2.00;;;9.80;62.30;;;;;;5011954;28;20441;-65
2021/03/16 13:21:31;;;;;;;12.68;2.03;;;9.90;62.20;;;;;;5012469;28;20085;-65
2021/03/16 13:24:15;;;;;;;10.73;1.38;;;9.90;62.30;;;;;;5012354;28;20049;-65
2021/03/16 13:27:00;;;;;;;12.60;1.77;;;10.00;62.40;;;;;;5012472;28;20040;-65
2021/03/16 13:29:44;;;;;;;11.77;1.50;;;10.10;61.90;;;;;;5012756;28;20119;-66
2021/03/16 13:32:29;;;;;;;9.32;1.45;;;10.20;61.70;;;;;;5011103;28;20045;-65
2021/03/16 13:35:13;;;;;;;9.05;1.50;;;10.20;61.60;;;;;;5012542;28;20519;-66
2021/03/16 13:37:58;;;;;;;10.13;1.90;;;10.30;61.50;;;;;;5012272;28;20040;-66
2021/03/16 13:40:42;;;;;;;9.80;1.60;;;10.50;61.50;;;;;;5011842;28;20331;-65
2021/03/16 13:43:27;;;;;;;12.02;1.70;;;10.50;61.10;;;;;;5012249;28;20045;-65
2021/03/16 13:46:11;;;;;;;10.88;2.03;;;10.60;60.20;;;;;;5011121;28;20552;-66
2021/03/16 13:48:55;;;;;;;9.98;1.30;;;10.50;60.10;;;;;;5011917;28;20120;-66
2021/03/16 13:51:39;;;;;;;10.85;1.52;;;10.50;59.80;;;;;;5012070;28;20516;-65
2021/03/16 13:54:24;;;;;;;8.30;1.60;;;10.50;60.00;;;;;;5011764;28;20398;-66
2021/03/16 13:57:08;;;;;;;7.88;1.30;;;10.50;59.80;;;;;;5010510;28;20057;-65